Espaço - Ciências - Fenômenos Naturais
Meteógrafos Informações Meteorológicas em tempo real

Aeroporto de São José dos Campos

Histórico do Tempo
Temperatura atual: 16 graus 60 F    Umidade relativa: 87 %
Velocidade do vento: 02 nós 3 Km/h    Direção: 250 graus WSW
Ajuste do altímetro ..: 1015 HPA
Visibilidade: Regular    Tempo presente: Parcialmente Nublado

Observação
Poucas nuvens a 2500 Pés., Céu nublado a 7000 Pés.

Data Hora BRTTempo°CUmidadePressãoVentoVisib.
24/05 - 07:56   Parcialmente Nublado 16° 87% 1015 Oeste-sudoeste/3 km/h 6000
24/05 - 06:56   Névoa úmida 15° 93% 1014 Norte-nordeste/1 km/h 4000
24/05 - 05:56   Poucas nuvens esparsas 16° 93% 1016 Norte-nordeste/3 km/h OK
24/05 - 04:56   Poucas nuvens esparsas 16° 93% 1016 Norte-nordeste/3 km/h OK
24/05 - 03:56   Poucas nuvens esparsas 17° 88% 1016 Sudeste/3 km/h OK
24/05 - 02:56   Poucas nuvens esparsas 17° 88% 1016 Norte/0 km/h OK
24/05 - 01:56   Poucas nuvens esparsas 17° 88% 1016 Norte/0 km/h OK
24/05 - 00:56   Poucas nuvens esparsas 18° 82% 1016 Norte-nordeste/3 km/h OK
23/05 - 23:56   Poucas nuvens esparsas 18° 82% 1017 Norte/0 km/h OK
23/05 - 22:56   Poucas nuvens esparsas 19° 77% 1017 Sul/5 km/h OK
23/05 - 21:56   Céu Limpo 18° 82% 1017 Sudeste/1 km/h OK
23/05 - 20:56   Céu Limpo 19° 77% 1016 Sudeste/3 km/h OK
23/05 - 19:56   Céu Limpo 19° 77% 1016 Sudeste/3 km/h OK
23/05 - 18:56   Céu Limpo 21° 68% 1016 Este-sudeste/1 km/h OK
23/05 - 17:56   Céu Limpo 21° 68% 1015 Sul-sudeste/5 km/h OK
23/05 - 16:56   Não Disponível 25° 44% 1015 Norte/3 km/h OK
23/05 - 15:56   Não Disponível 26° 44% 1014 Norte-noroeste/5 km/h OK
23/05 - 14:56   Não Disponível 26° 44% 1015 Oeste-noroeste/7 km/h OK
23/05 - 13:56   Céu Limpo 26° 44% 1016 Oeste-noroeste/7 km/h OK
23/05 - 12:56   Céu Limpo 24° 53% 1017 Norte/0 km/h OK
23/05 - 11:56   Céu Limpo 24° 53% 1017 Norte/0 km/h OK
23/05 - 10:56   Céu Limpo 22° 64% 1018 Norte/0 km/h OK
23/05 - 09:56   Quase sem nuvens 20° 73% 1019 /3 km/h 8000
23/05 - 08:56   Névoa úmida 15° 87% 1018 Norte/0 km/h 5000


Apolo11.com - Todos os direitos reservados - 2000 - 2019
Política de Privacidade   |     Termo de Uso e Licenciamento   |  -   Entre em Contato

"Política é a guerra sem sangue enquanto a guerra é a política com sangue" - Mao Tsé-Tung